createdAt,value
2023-08-14T07:10:22.252Z,96559.47
2023-08-14T07:12:47.507Z,96561.94
2023-08-14T07:13:49.133Z,96556.38
2023-08-14T07:14:51.801Z,96554.66
2023-08-14T07:15:53.665Z,96562.56
2023-08-14T07:16:55.041Z,96564.44
2023-08-14T07:17:57.053Z,96562.38
2023-08-14T07:18:58.552Z,96574.81
2023-08-14T07:20:00.065Z,96555.44
2023-08-14T07:21:01.644Z,96564.88
2023-08-14T07:22:03.065Z,96562.97
2023-08-14T07:23:04.575Z,96554.41
2023-08-14T07:24:06.247Z,96556.69
2023-08-14T07:25:08.075Z,96556.00
2023-08-14T07:26:16.234Z,96560.06
2023-08-14T07:27:18.207Z,96566.50
2023-08-14T07:28:19.697Z,96557.53
2023-08-14T07:29:21.102Z,96558.91
2023-08-14T07:30:22.592Z,96557.84
2023-08-14T07:31:24.245Z,96552.22
2023-08-14T07:32:25.908Z,96553.50
2023-08-14T07:33:27.382Z,96556.16
2023-08-14T07:34:29.304Z,96560.88
2023-08-14T07:35:30.703Z,96556.56
2023-08-14T07:36:32.112Z,96559.28
2023-08-14T07:37:33.554Z,96561.44
2023-08-14T07:38:34.978Z,96555.41
2023-08-14T07:39:36.351Z,96556.34
2023-08-14T07:40:37.783Z,96556.34
2023-08-14T07:41:39.190Z,96554.97
2023-08-14T07:42:40.566Z,96561.81
2023-08-14T07:43:42.032Z,96556.13
2023-08-14T07:44:43.438Z,96562.13
2023-08-14T07:45:45.131Z,96565.81
2023-08-14T07:46:46.574Z,96567.97
2023-08-14T07:47:48.195Z,96565.31
2023-08-14T07:48:49.681Z,96566.00
2023-08-14T07:49:51.217Z,96564.81
2023-08-14T07:50:53.837Z,96562.44
2023-08-14T07:51:55.313Z,96566.97
2023-08-14T07:52:56.793Z,96560.97
2023-08-14T07:53:58.224Z,96559.13
2023-08-14T07:54:59.714Z,96559.47
2023-08-14T07:56:01.194Z,96560.81
2023-08-14T07:57:02.678Z,96554.13
2023-08-14T07:58:04.329Z,96559.47
2023-08-14T07:59:06.423Z,96565.03
2023-08-14T08:00:09.767Z,96559.16
2023-08-14T08:01:11.580Z,96572.22
2023-08-14T08:02:13.437Z,96567.81
2023-08-14T08:03:14.952Z,96563.81
2023-08-14T08:05:21.065Z,96570.28
2023-08-14T08:06:22.674Z,96565.94
2023-08-14T08:07:25.553Z,96573.34
2023-08-14T08:08:27.540Z,96574.66
2023-08-14T08:09:29.136Z,96570.16
2023-08-14T08:10:31.135Z,96576.88
2023-08-14T08:11:32.574Z,96573.31
2023-08-14T08:12:34.355Z,96578.16
2023-08-14T08:13:35.860Z,96578.50
2023-08-14T08:14:37.582Z,96585.03
2023-08-14T08:15:39.564Z,96587.72
2023-08-14T08:16:41.120Z,96587.72
2023-08-14T08:17:42.636Z,96588.94
2023-08-14T08:18:44.299Z,96589.75
2023-08-14T08:19:47.564Z,96587.91
2023-08-14T08:20:49.100Z,96592.41
2023-08-14T08:21:50.614Z,96597.56
2023-08-14T08:22:52.182Z,96588.34
2023-08-14T08:23:53.732Z,96597.06
2023-08-14T08:24:55.879Z,96600.75
2023-08-14T08:25:57.387Z,96596.41
2023-08-14T08:26:58.864Z,96595.25
2023-08-14T08:28:00.258Z,96592.63
2023-08-14T08:29:01.809Z,96597.59
2023-08-14T08:30:04.050Z,96600.09
2023-08-14T08:31:05.494Z,96604.66
2023-08-14T08:32:07.114Z,96603.31
2023-08-14T08:33:08.796Z,96613.66
2023-08-14T08:34:10.281Z,96605.31
2023-08-14T08:35:11.716Z,96608.16
2023-08-14T08:36:13.363Z,96605.63
2023-08-14T08:37:17.402Z,96601.22
2023-08-14T08:38:19.535Z,96606.91
2023-08-14T08:39:21.386Z,96606.59
2023-08-14T08:40:23.489Z,96604.59
2023-08-14T08:41:36.780Z,96599.41
2023-08-14T08:42:39.258Z,96606.97
2023-08-14T08:43:41.786Z,96602.66
2023-08-14T08:44:46.273Z,96596.13
2023-08-14T08:45:51.403Z,96606.44
2023-08-14T08:47:20.234Z,96607.16
2023-08-14T08:48:23.481Z,96610.66
2023-08-14T08:49:28.911Z,96607.34
2023-08-14T08:50:31.276Z,96605.94
2023-08-14T08:51:34.880Z,96605.56
2023-08-14T08:52:36.674Z,96601.13
2023-08-14T08:53:38.615Z,96609.56
2023-08-14T08:54:41.089Z,96605.41
2023-08-14T08:55:43.276Z,96603.66
2023-08-14T08:56:46.052Z,96607.91
2023-08-14T08:57:49.593Z,96601.44
2023-08-14T08:58:52.232Z,96607.44
2023-08-14T08:59:56.090Z,96598.47
2023-08-14T09:00:58.478Z,96598.84
2023-08-14T09:02:00.102Z,96594.91
2023-08-14T09:03:01.683Z,96597.63
2023-08-14T09:04:04.218Z,96603.44
2023-08-14T09:05:06.219Z,96608.38
2023-08-14T09:06:07.691Z,96610.22
2023-08-14T09:07:09.193Z,96604.94
2023-08-14T09:08:10.787Z,96611.69
2023-08-14T09:09:15.721Z,96606.22
2023-08-14T09:10:17.610Z,96616.16
2023-08-14T09:11:19.361Z,96606.59
2023-08-14T09:12:21.266Z,96600.97
2023-08-14T09:13:31.477Z,96608.19
2023-08-14T09:14:34.068Z,96602.63
2023-08-14T09:16:39.993Z,96604.13
2023-08-14T09:17:41.524Z,96608.19
2023-08-14T09:18:44.468Z,96600.84
2023-08-14T09:19:46.274Z,96604.66
2023-08-14T09:20:47.951Z,96598.88
2023-08-14T09:21:49.854Z,96600.69
2023-08-14T09:22:56.770Z,96594.47
2023-08-14T09:23:58.519Z,96598.16
2023-08-14T09:25:01.123Z,96591.97
2023-08-14T09:26:03.482Z,96595.13
2023-08-14T09:27:05.996Z,96596.31
2023-08-14T09:28:11.276Z,96588.72
2023-08-14T09:30:25.569Z,96583.56
2023-08-14T09:31:32.301Z,96583.28
2023-08-14T09:32:33.954Z,96586.53
2023-08-14T09:33:37.741Z,96582.47
2023-08-14T09:34:39.308Z,96588.56
2023-08-14T09:35:41.196Z,96581.91
2023-08-14T09:36:42.854Z,96582.25
2023-08-14T09:37:44.369Z,96584.19
2023-08-14T09:38:45.810Z,96593.88
2023-08-14T09:39:47.325Z,96597.97
2023-08-14T09:40:48.915Z,96589.72
2023-08-14T09:41:50.720Z,96586.13
2023-08-14T09:42:52.204Z,96589.06
2023-08-14T09:43:54.301Z,96590.78
2023-08-14T09:44:55.772Z,96590.28
2023-08-14T09:45:59.982Z,96588.78
2023-08-14T09:47:01.717Z,96597.44
2023-08-14T09:48:05.250Z,96592.09
2023-08-14T09:49:07.317Z,96588.75
2023-08-14T09:50:09.597Z,96584.78
2023-08-14T09:51:12.799Z,96588.56
2023-08-14T09:52:14.211Z,96587.53
2023-08-14T09:53:15.762Z,96590.28
2023-08-14T09:54:17.237Z,96587.44
2023-08-14T09:55:18.845Z,96588.34
2023-08-14T09:56:20.708Z,96591.63
2023-08-14T09:57:27.520Z,96583.44
2023-08-14T09:58:30.711Z,96581.94
2023-08-14T09:59:32.278Z,96580.88
2023-08-14T10:00:34.331Z,96588.00
2023-08-14T10:01:37.809Z,96586.44
2023-08-14T10:02:41.847Z,96593.00
2023-08-14T10:03:44.332Z,96587.69
2023-08-14T10:04:47.340Z,96586.91
2023-08-14T10:05:49.040Z,96581.47
2023-08-14T10:06:52.949Z,96588.19
2023-08-14T10:07:55.708Z,96588.94
2023-08-14T10:09:00.815Z,96584.50
2023-08-14T10:10:04.695Z,96581.72
2023-08-14T10:11:18.940Z,96580.31
2023-08-14T10:12:30.725Z,96583.91
2023-08-14T10:13:33.754Z,96581.53
2023-08-14T10:14:37.712Z,96582.56
2023-08-14T10:15:44.606Z,96569.69
2023-08-14T10:16:49.509Z,96584.34
2023-08-14T10:17:56.566Z,96575.44
2023-08-14T10:19:02.193Z,96574.44
2023-08-14T10:20:04.932Z,96575.91
2023-08-14T10:21:12.194Z,96574.72
2023-08-14T10:22:14.886Z,96582.72
2023-08-14T10:23:17.376Z,96580.28
2023-08-14T10:24:19.830Z,96587.13
2023-08-14T10:25:23.868Z,96584.91
2023-08-14T10:26:28.076Z,96583.84
2023-08-14T10:27:31.364Z,96579.09
2023-08-14T10:28:32.928Z,96588.06
2023-08-14T10:29:35.995Z,96577.66
2023-08-14T10:30:37.995Z,96582.06
2023-08-14T10:31:39.942Z,96578.69
2023-08-14T10:32:42.582Z,96585.88
2023-08-14T10:33:44.362Z,96580.47
2023-08-14T10:34:47.202Z,96581.38
2023-08-14T10:35:55.155Z,96581.38
2023-08-14T10:36:57.180Z,96586.06
2023-08-14T10:38:08.864Z,96581.03
2023-08-14T10:40:23.155Z,96583.81
2023-08-14T10:41:24.644Z,96586.47
2023-08-14T10:42:26.267Z,96586.81
2023-08-14T10:43:29.876Z,96583.28
2023-08-14T10:44:34.987Z,96587.38
2023-08-14T10:45:36.718Z,96587.34
2023-08-14T10:46:44.518Z,96585.47
2023-08-14T10:47:46.260Z,96585.19
2023-08-14T10:48:50.558Z,96590.06
2023-08-14T10:49:52.263Z,96592.75
2023-08-14T10:51:02.955Z,96588.91
2023-08-14T10:52:04.900Z,96590.13
2023-08-14T10:53:06.961Z,96591.25
2023-08-14T10:54:16.134Z,96592.81
2023-08-14T10:55:23.873Z,96588.41
2023-08-14T10:56:40.438Z,96593.53
2023-08-14T10:57:41.943Z,96583.22
2023-08-14T10:58:50.628Z,96590.97
2023-08-14T10:59:57.968Z,96588.94
2023-08-14T11:01:00.887Z,96597.09
2023-08-14T11:02:11.346Z,96592.31
2023-08-14T11:03:13.315Z,96594.38
2023-08-14T11:04:14.754Z,96602.50
2023-08-14T11:05:20.493Z,96598.66
2023-08-14T11:06:28.082Z,96595.69
2023-08-14T11:07:30.709Z,96594.94
2023-08-14T11:08:32.303Z,96594.88
2023-08-14T11:09:37.828Z,96587.72
2023-08-14T11:10:40.803Z,96597.38
2023-08-14T11:11:48.704Z,96594.63
2023-08-14T11:12:50.164Z,96593.72
2023-08-14T11:13:52.788Z,96587.44
2023-08-14T11:14:55.734Z,96590.22
2023-08-14T11:15:58.241Z,96595.22
2023-08-14T11:16:59.741Z,96580.88
2023-08-14T11:18:02.928Z,96580.47
2023-08-14T11:19:05.652Z,96569.41
2023-08-14T11:20:11.813Z,96569.88
2023-08-14T11:21:29.052Z,96573.47
2023-08-14T11:22:32.263Z,96570.91
2023-08-14T11:23:34.416Z,96571.72
2023-08-14T11:24:38.277Z,96568.59
2023-08-14T11:25:40.034Z,96569.81
2023-08-14T11:26:41.502Z,96567.25
2023-08-14T11:27:49.548Z,96572.34
2023-08-14T11:28:51.047Z,96573.56
2023-08-14T11:29:54.808Z,96572.13
2023-08-14T11:30:59.331Z,96569.00
2023-08-14T11:32:01.765Z,96572.47
2023-08-14T11:33:07.710Z,96572.78
2023-08-14T11:34:09.323Z,96572.06
2023-08-14T11:35:11.550Z,96567.59
2023-08-14T11:36:13.076Z,96568.03
2023-08-14T11:37:15.349Z,96567.19
2023-08-14T11:38:18.853Z,96564.59
2023-08-14T11:39:20.254Z,96564.97
2023-08-14T11:40:21.779Z,96564.25
2023-08-14T11:41:31.292Z,96574.84
2023-08-14T11:42:34.926Z,96581.56
2023-08-14T11:43:40.377Z,96581.97
2023-08-14T11:44:42.124Z,96591.06
2023-08-14T11:45:43.641Z,96581.56
2023-08-14T11:46:45.248Z,96575.91
2023-08-14T11:47:48.942Z,96571.72
2023-08-14T11:48:50.565Z,96569.06
2023-08-14T11:49:52.087Z,96556.94
2023-08-14T11:50:54.225Z,96560.69
2023-08-14T11:51:55.702Z,96566.56
2023-08-14T11:52:58.233Z,96586.50
2023-08-14T11:54:00.714Z,96597.28
2023-08-14T11:55:02.840Z,96603.50
2023-08-14T11:56:04.726Z,96626.38
2023-08-14T11:57:08.619Z,96628.28
2023-08-14T12:04:33.201Z,96628.72
2023-08-14T12:05:34.716Z,96612.09
2023-08-14T12:06:36.407Z,96606.75
2023-08-14T12:07:42.661Z,96620.00
2023-08-14T12:08:44.355Z,96629.91
2023-08-14T12:09:45.965Z,96626.13
2023-08-14T12:10:48.873Z,96636.38
2023-08-14T12:11:50.865Z,96637.28
2023-08-14T12:12:55.866Z,96640.41
2023-08-14T12:13:57.693Z,96647.38
2023-08-14T12:15:00.156Z,96650.16
2023-08-14T12:16:11.936Z,96646.78
2023-08-14T12:17:21.073Z,96652.44
2023-08-14T12:18:24.745Z,96659.19
2023-08-14T12:19:29.572Z,96653.97
2023-08-14T12:20:35.163Z,96646.94
2023-08-14T12:21:36.786Z,96643.75
2023-08-14T12:22:39.398Z,96630.38
2023-08-14T12:23:47.777Z,96637.00
2023-08-14T12:24:49.736Z,96637.22
2023-08-14T12:25:52.125Z,96640.06
2023-08-14T12:26:53.947Z,96644.91
2023-08-14T12:27:55.398Z,96642.06
2023-08-14T12:28:57.243Z,96643.06
2023-08-14T12:29:59.151Z,96647.41
2023-08-14T12:31:00.640Z,96648.75
2023-08-14T12:32:03.317Z,96647.75
2023-08-14T12:33:05.050Z,96644.75
2023-08-14T12:34:07.717Z,96641.88
2023-08-14T12:35:09.402Z,96643.00
2023-08-14T12:36:11.435Z,96648.53
2023-08-14T12:37:15.024Z,96644.53
2023-08-14T12:38:16.542Z,96641.41
2023-08-14T12:39:18.005Z,96648.56
2023-08-14T12:40:19.451Z,96643.25
2023-08-14T12:41:20.941Z,96638.06
2023-08-14T12:42:22.546Z,96644.25
2023-08-14T12:43:33.185Z,96642.22
2023-08-14T12:44:40.963Z,96650.41
2023-08-14T12:45:43.102Z,96646.75
2023-08-14T12:46:44.800Z,96647.56
2023-08-14T12:47:46.374Z,96652.44
2023-08-14T12:48:47.960Z,96658.00
2023-08-14T12:49:49.370Z,96660.34
2023-08-14T12:50:50.829Z,96652.53
2023-08-14T12:51:56.027Z,96653.06
2023-08-14T12:52:57.491Z,96650.38
2023-08-14T12:53:59.020Z,96650.38
2023-08-14T12:56:04.873Z,96636.47
2023-08-14T12:58:13.648Z,96629.34
2023-08-14T12:59:23.703Z,96628.78
2023-08-14T13:00:31.804Z,96624.41
2023-08-14T13:01:33.878Z,96626.25
2023-08-14T13:02:35.441Z,96620.78
2023-08-14T13:03:38.084Z,96624.91
2023-08-14T13:05:46.845Z,96623.84
2023-08-14T13:06:48.294Z,96625.16
2023-08-14T13:07:49.830Z,96618.63
2023-08-14T13:08:51.335Z,96621.28
2023-08-14T13:09:52.778Z,96608.50
2023-08-14T13:10:54.267Z,96611.94
2023-08-14T13:11:55.717Z,96609.69
2023-08-14T13:12:58.256Z,96608.97
2023-08-14T13:13:59.740Z,96608.50
2023-08-14T13:15:01.178Z,96606.00
2023-08-14T13:16:03.810Z,96608.53
2023-08-14T13:17:05.425Z,96605.66
2023-08-14T13:18:06.891Z,96611.66
2023-08-14T13:19:08.375Z,96608.59
2023-08-14T13:20:10.440Z,96611.34
2023-08-14T13:21:12.837Z,96602.13
2023-08-14T13:22:16.915Z,96610.44
2023-08-14T13:23:18.696Z,96610.28
2023-08-14T13:24:20.107Z,96605.16
2023-08-14T13:25:21.886Z,96600.53
2023-08-14T13:26:27.306Z,96604.59
2023-08-14T13:27:29.822Z,96593.84
2023-08-14T13:28:33.408Z,96592.91
2023-08-14T13:29:35.117Z,96600.41
2023-08-14T13:30:36.926Z,96594.50
2023-08-14T13:31:38.371Z,96593.50
2023-08-14T13:32:39.767Z,96601.13
2023-08-14T13:33:41.366Z,96600.34
2023-08-14T13:34:42.899Z,96602.41
2023-08-14T13:35:44.893Z,96605.22
2023-08-14T13:36:46.381Z,96599.41
2023-08-14T13:37:47.878Z,96610.47
2023-08-14T13:38:49.501Z,96599.66
2023-08-14T13:39:50.982Z,96599.59
2023-08-14T13:40:52.647Z,96596.66
2023-08-14T13:41:54.526Z,96589.50
2023-08-14T13:42:56.092Z,96589.94
2023-08-14T13:43:57.600Z,96588.97
2023-08-14T13:45:08.239Z,96584.53
2023-08-14T13:46:14.221Z,96583.31
2023-08-14T13:47:18.330Z,96573.34
2023-08-14T13:48:20.079Z,96578.94
2023-08-14T13:49:21.600Z,96571.53
2023-08-14T13:50:32.593Z,96579.19
2023-08-14T13:51:34.472Z,96591.44
2023-08-14T13:52:35.919Z,96586.25
2023-08-14T13:53:37.683Z,96588.03
2023-08-14T13:54:39.179Z,96586.13
2023-08-14T13:55:44.734Z,96585.72
2023-08-14T13:56:46.359Z,96579.63
2023-08-14T13:57:48.079Z,96583.03
2023-08-14T13:58:49.608Z,96588.44
2023-08-14T13:59:51.243Z,96589.03
2023-08-14T14:00:52.654Z,96586.25
2023-08-14T14:01:54.162Z,96589.81
2023-08-14T14:02:55.677Z,96580.81
2023-08-14T14:03:57.198Z,96592.09
2023-08-14T14:04:58.693Z,96587.94
2023-08-14T14:06:00.198Z,96593.06
2023-08-14T14:07:02.693Z,96585.03
2023-08-14T14:08:04.533Z,96589.53
2023-08-14T14:09:06.000Z,96583.13
2023-08-14T14:10:07.753Z,96585.19
2023-08-14T14:11:09.224Z,96587.06
2023-08-14T14:12:10.704Z,96586.66
2023-08-14T14:13:12.225Z,96580.53
2023-08-14T14:14:13.723Z,96584.69
2023-08-14T14:15:15.159Z,96583.84
2023-08-14T14:16:21.863Z,96582.53
2023-08-14T14:17:23.425Z,96583.09
2023-08-14T14:18:24.866Z,96587.59
2023-08-14T14:19:28.121Z,96584.06
2023-08-14T14:20:30.077Z,96585.47
2023-08-14T14:21:31.461Z,96590.13
2023-08-14T14:22:32.841Z,96587.34
2023-08-14T14:23:34.395Z,96575.13
2023-08-14T14:24:36.185Z,96583.03
2023-08-14T14:25:37.654Z,96576.66
2023-08-14T14:26:39.199Z,96572.28
2023-08-14T14:27:40.784Z,96575.78
2023-08-14T14:28:42.199Z,96568.75
2023-08-14T14:29:44.399Z,96572.19
2023-08-14T14:30:45.939Z,96579.22
2023-08-14T14:31:47.373Z,96574.97
2023-08-14T14:32:48.886Z,96572.56
2023-08-14T14:33:50.294Z,96564.84
2023-08-14T14:34:51.719Z,96570.69
2023-08-14T14:35:53.246Z,96564.22
2023-08-14T14:36:54.789Z,96549.53
2023-08-14T14:37:56.246Z,96556.59
2023-08-14T14:38:57.802Z,96553.69
2023-08-14T14:39:59.330Z,96553.34
2023-08-14T14:41:03.988Z,96554.81
2023-08-14T14:42:05.686Z,96556.75
2023-08-14T14:43:07.124Z,96559.81
2023-08-14T14:44:08.594Z,96559.63
2023-08-14T14:45:17.672Z,96551.41
2023-08-14T14:46:25.817Z,96554.44
2023-08-14T14:47:27.760Z,96556.13
2023-08-14T14:48:29.207Z,96555.19
2023-08-14T14:49:30.639Z,96545.31
2023-08-14T14:50:32.486Z,96548.03
2023-08-14T14:51:35.080Z,96536.22
2023-08-14T14:52:36.582Z,96540.03
2023-08-14T14:53:38.080Z,96529.50
2023-08-14T14:54:39.609Z,96535.75
2023-08-14T14:55:41.090Z,96531.34
2023-08-14T14:56:42.535Z,96528.34
2023-08-14T14:57:43.990Z,96526.38
2023-08-14T14:58:46.024Z,96523.03
2023-08-14T14:59:48.325Z,96518.19
2023-08-14T15:00:51.437Z,96518.88
2023-08-14T15:01:52.967Z,96520.94
2023-08-14T15:02:54.541Z,96522.84
2023-08-14T15:03:56.548Z,96517.78
2023-08-14T15:04:58.345Z,96521.41
2023-08-14T15:05:59.787Z,96522.06
2023-08-14T15:07:01.187Z,96519.75
2023-08-14T15:08:02.569Z,96519.13
2023-08-14T15:09:04.174Z,96528.44
2023-08-14T15:10:06.360Z,96521.59
2023-08-14T15:11:08.396Z,96519.38
2023-08-14T15:12:09.868Z,96522.13
2023-08-14T15:13:11.381Z,96527.50
2023-08-14T15:14:13.066Z,96528.94
2023-08-14T15:15:14.702Z,96517.56
2023-08-14T15:16:16.245Z,96519.22
2023-08-14T15:17:17.977Z,96526.06
2023-08-14T15:18:19.786Z,96520.06
2023-08-14T15:19:21.554Z,96522.56
2023-08-14T15:20:23.040Z,96521.28
2023-08-14T15:21:24.435Z,96527.56
2023-08-14T15:22:25.924Z,96517.25
2023-08-14T15:23:27.281Z,96525.69
2023-08-14T15:24:28.697Z,96520.38
2023-08-14T15:25:31.973Z,96520.16
2023-08-14T15:26:33.387Z,96520.75
2023-08-14T15:27:34.981Z,96511.03
2023-08-14T15:28:36.375Z,96508.16
2023-08-14T15:29:38.088Z,96503.53
2023-08-14T15:30:43.146Z,96514.19
2023-08-14T15:31:44.772Z,96512.41
2023-08-14T15:32:46.283Z,96506.47
2023-08-14T15:33:47.937Z,96509.50
2023-08-14T15:34:51.556Z,96493.63
2023-08-14T15:35:52.954Z,96503.28
2023-08-14T15:36:54.431Z,96498.22
2023-08-14T15:37:55.826Z,96500.47
2023-08-14T15:38:57.242Z,96495.41
2023-08-14T15:39:58.771Z,96493.63
2023-08-14T15:41:00.369Z,96498.91
2023-08-14T15:42:01.825Z,96492.78
2023-08-14T15:43:05.072Z,96489.28
2023-08-14T15:44:09.102Z,96489.66
2023-08-14T15:45:12.706Z,96494.66
2023-08-14T15:46:15.790Z,96497.56
2023-08-14T15:47:17.803Z,96489.97
2023-08-14T15:48:19.733Z,96486.13
2023-08-14T15:49:21.182Z,96494.84
2023-08-14T15:50:22.598Z,96491.28
2023-08-14T15:51:24.047Z,96487.31
2023-08-14T15:52:31.546Z,96481.09
2023-08-14T15:53:33.228Z,96488.72
2023-08-14T15:54:51.328Z,96484.94
2023-08-14T15:55:54.910Z,96489.94
2023-08-14T15:56:56.296Z,96488.84
2023-08-14T15:57:57.857Z,96487.22
2023-08-14T15:58:59.271Z,96483.66
2023-08-14T16:00:07.730Z,96485.28
2023-08-14T16:01:09.199Z,96484.47
2023-08-14T16:02:10.660Z,96480.31
2023-08-14T16:03:12.320Z,96484.03
2023-08-14T16:04:14.815Z,96481.00
2023-08-14T16:05:16.475Z,96480.63
2023-08-14T16:06:17.968Z,96488.72
2023-08-14T16:07:20.070Z,96480.94
2023-08-14T16:08:21.754Z,96486.03
2023-08-14T16:09:23.145Z,96490.28
2023-08-14T16:10:24.657Z,96483.97
2023-08-14T16:11:26.106Z,96482.19
2023-08-14T16:12:27.511Z,96482.69
2023-08-14T16:13:28.942Z,96483.38
2023-08-14T16:14:30.400Z,96485.25
2023-08-14T16:15:32.615Z,96481.75
2023-08-14T16:16:34.062Z,96486.13
2023-08-14T16:17:35.822Z,96489.59
2023-08-14T16:18:37.670Z,96487.22
2023-08-14T16:19:39.990Z,96488.94
2023-08-14T16:20:41.639Z,96483.91
2023-08-14T16:21:43.051Z,96479.63
2023-08-14T16:22:44.533Z,96482.63
2023-08-14T16:23:45.954Z,96473.19
2023-08-14T16:24:47.354Z,96481.00
2023-08-14T16:25:49.113Z,96481.13
2023-08-14T16:26:50.570Z,96481.50
2023-08-14T16:27:51.988Z,96475.84
2023-08-14T16:28:53.429Z,96476.03
2023-08-14T16:29:55.785Z,96472.91
2023-08-14T16:30:57.528Z,96474.72
2023-08-14T16:31:58.965Z,96471.88
2023-08-14T16:33:01.545Z,96475.72
2023-08-14T16:34:03.244Z,96479.00
2023-08-14T16:35:05.517Z,96483.94
2023-08-14T16:36:07.318Z,96478.97
2023-08-14T16:37:08.778Z,96478.03
2023-08-14T16:38:10.166Z,96477.78
2023-08-14T16:39:14.279Z,96482.72
2023-08-14T16:40:17.328Z,96480.78
2023-08-14T16:41:18.953Z,96488.66
2023-08-14T16:42:20.403Z,96474.97
2023-08-14T16:43:21.822Z,96487.25
2023-08-14T16:44:23.305Z,96479.97
2023-08-14T16:45:25.520Z,96486.03
2023-08-14T16:46:27.136Z,96482.59
2023-08-14T16:47:29.409Z,96478.31
2023-08-14T16:48:30.892Z,96484.13
2023-08-14T16:49:32.521Z,96481.44
2023-08-14T16:50:37.324Z,96488.06
2023-08-14T16:51:38.751Z,96481.66
2023-08-14T16:52:40.192Z,96484.13
2023-08-14T16:53:41.732Z,96482.09
2023-08-14T16:54:43.779Z,96483.75
2023-08-14T16:55:45.335Z,96480.63
2023-08-14T16:56:46.778Z,96484.94
2023-08-14T16:57:48.254Z,96480.91
2023-08-14T16:58:49.747Z,96472.25
2023-08-14T16:59:51.281Z,96478.31
2023-08-14T17:00:54.099Z,96484.97
2023-08-14T17:01:55.591Z,96480.31
2023-08-14T17:02:57.978Z,96484.41
2023-08-14T17:03:59.607Z,96479.38
2023-08-14T17:05:01.061Z,96478.63
2023-08-14T17:06:03.567Z,96479.59
2023-08-14T17:07:05.137Z,96470.25
2023-08-14T17:08:06.986Z,96478.88
2023-08-14T17:09:09.470Z,96481.03
2023-08-14T17:10:11.453Z,96481.13
2023-08-14T17:11:12.927Z,96486.91
2023-08-14T17:12:14.540Z,96484.09
2023-08-14T17:13:15.944Z,96479.84
2023-08-14T17:23:26.491Z,96478.53
2023-08-14T17:24:28.135Z,96478.34
2023-08-14T17:30:38.189Z,96485.75
2023-08-14T17:31:39.668Z,96478.72
2023-08-14T17:32:41.140Z,96478.53
2023-08-14T17:38:25.286Z,96485.19
2023-08-14T17:39:26.791Z,96483.25
2023-08-14T17:40:28.669Z,96497.16
2023-08-14T17:46:30.402Z,96480.38
2023-08-14T17:47:34.800Z,96485.09
2023-08-14T17:48:36.347Z,96486.47
2023-08-14T17:55:05.055Z,96494.16
2023-08-14T18:01:02.849Z,96486.41
